createdAt,value
2023-05-13T00:00:14.538Z,98565.44
2023-05-13T00:02:59.722Z,98565.00
2023-05-13T00:05:47.220Z,98559.28
2023-05-13T00:08:32.150Z,98557.44
2023-05-13T00:11:17.540Z,98549.72
2023-05-13T00:14:03.357Z,98560.06
2023-05-13T00:16:48.845Z,98565.97
2023-05-13T00:19:34.045Z,98567.97
2023-05-13T00:22:19.232Z,98569.38
2023-05-13T00:25:04.961Z,98566.22
2023-05-13T00:27:50.230Z,98561.56
2023-05-13T00:30:35.225Z,98507.59
2023-05-13T00:33:20.804Z,98562.53
2023-05-13T00:36:06.553Z,98561.09
2023-05-13T00:38:51.814Z,98566.78
2023-05-13T00:41:37.113Z,98571.22
2023-05-13T00:44:22.588Z,98562.63
2023-05-13T00:47:11.244Z,98536.06
2023-05-13T00:49:57.710Z,98558.88
2023-05-13T00:52:43.495Z,98536.38
2023-05-13T00:55:29.080Z,98548.66
2023-05-13T00:58:14.565Z,98550.69
2023-05-13T01:01:19.388Z,98557.94
2023-05-13T01:04:37.369Z,98555.50
2023-05-13T01:07:43.867Z,98555.06
2023-05-13T01:10:50.013Z,98552.38
2023-05-13T01:13:38.039Z,98561.88
2023-05-13T01:16:45.880Z,98556.97
2023-05-13T01:19:54.507Z,98564.44
2023-05-13T01:22:39.707Z,98567.38
2023-05-13T01:25:25.983Z,98574.53
2023-05-13T01:28:11.604Z,98537.75
2023-05-13T01:30:59.289Z,98565.03
2023-05-13T01:33:46.661Z,98550.69
2023-05-13T01:36:32.874Z,98577.88
2023-05-13T01:39:20.463Z,98578.97
2023-05-13T01:42:08.286Z,98578.13
2023-05-13T01:44:54.574Z,98579.59
2023-05-13T01:47:39.821Z,98579.19
2023-05-13T01:50:26.634Z,98582.41
2023-05-13T01:53:12.794Z,98551.69
2023-05-13T01:55:59.081Z,98586.63
2023-05-13T01:58:44.819Z,98592.06
2023-05-13T02:01:30.494Z,98587.81
2023-05-13T02:04:15.702Z,98586.38
2023-05-13T02:07:00.888Z,98543.94
2023-05-13T02:09:48.412Z,98588.06
2023-05-13T02:12:33.590Z,98583.97
2023-05-13T02:15:18.948Z,98581.97
2023-05-13T02:18:04.489Z,98551.25
2023-05-13T02:20:49.805Z,98583.34
2023-05-13T02:23:35.143Z,98590.34
2023-05-13T02:26:20.840Z,98591.84
2023-05-13T02:29:06.188Z,98593.53
2023-05-13T02:31:52.048Z,98592.09
2023-05-13T02:34:37.203Z,98601.00
2023-05-13T02:37:22.694Z,98527.34
2023-05-13T02:40:16.500Z,98594.44
2023-05-13T02:43:03.794Z,98590.88
2023-05-13T02:46:03.399Z,98591.50
2023-05-13T02:48:50.382Z,98587.50
2023-05-13T02:51:35.628Z,98565.84
2023-05-13T02:54:21.649Z,98571.13
2023-05-13T02:57:07.061Z,98573.19
2023-05-13T02:59:52.932Z,98575.25
2023-05-13T03:02:38.239Z,98572.41
2023-05-13T03:05:23.696Z,98585.50
2023-05-13T03:08:08.913Z,98586.78
2023-05-13T03:10:54.473Z,98597.31
2023-05-13T03:13:39.752Z,98589.66
2023-05-13T03:16:25.385Z,98587.13
2023-05-13T03:19:10.929Z,98596.88
2023-05-13T03:21:56.230Z,98607.13
2023-05-13T03:24:42.378Z,98597.84
2023-05-13T03:27:28.659Z,98583.03
2023-05-13T03:30:14.526Z,98590.28
2023-05-13T03:33:08.878Z,98599.00
2023-05-13T03:35:54.678Z,98589.13
2023-05-13T03:38:45.197Z,98594.66
2023-05-13T03:41:30.693Z,98516.06
2023-05-13T03:44:17.741Z,98590.69
2023-05-13T03:47:03.656Z,98568.84
2023-05-13T03:49:49.012Z,98569.13
2023-05-13T03:52:34.927Z,98593.28
2023-05-13T03:55:20.369Z,98586.00
2023-05-13T03:58:13.189Z,98586.63
2023-05-13T04:00:58.348Z,98586.63
2023-05-13T04:03:43.667Z,98594.53
2023-05-13T04:06:29.073Z,98588.81
2023-05-13T04:09:14.355Z,98594.09
2023-05-13T04:12:00.823Z,98597.09
2023-05-13T04:14:46.018Z,98605.09
2023-05-13T04:17:31.391Z,98599.91
2023-05-13T04:20:16.902Z,98609.94
2023-05-13T04:23:02.390Z,98602.63
2023-05-13T04:25:52.050Z,98609.41
2023-05-13T04:28:38.911Z,98554.88
2023-05-13T04:31:24.328Z,98602.31
2023-05-13T04:34:09.699Z,98560.41
2023-05-13T04:36:55.574Z,98609.94
2023-05-13T04:39:41.288Z,98617.84
2023-05-13T04:42:26.627Z,98620.94
2023-05-13T04:45:11.857Z,98611.47
2023-05-13T04:47:58.460Z,98615.00
2023-05-13T04:50:47.746Z,98623.31
2023-05-13T04:53:34.778Z,98620.38
2023-05-13T04:56:23.145Z,98613.81
2023-05-13T04:59:09.533Z,98619.81
2023-05-13T05:01:55.049Z,98622.53
2023-05-13T05:04:40.722Z,98623.63
2023-05-13T05:07:31.138Z,98613.81
2023-05-13T05:10:16.576Z,98620.03
2023-05-13T05:13:09.827Z,98628.22
2023-05-13T05:15:55.495Z,98611.66
2023-05-13T05:18:41.217Z,98592.53
2023-05-13T05:21:27.025Z,98628.38
2023-05-13T05:24:13.202Z,98550.56
2023-05-13T05:26:58.308Z,98628.75
2023-05-13T05:29:44.231Z,98619.53
2023-05-13T05:32:29.756Z,98616.19
2023-05-13T05:35:15.160Z,98625.03
2023-05-13T05:38:00.618Z,98625.03
2023-05-13T05:40:46.044Z,98627.06
2023-05-13T05:43:31.208Z,98631.97
2023-05-13T05:46:16.705Z,98638.47
2023-05-13T05:49:02.218Z,98640.88
2023-05-13T05:51:47.576Z,98639.28
2023-05-13T05:54:32.713Z,98648.13
2023-05-13T05:57:18.852Z,98648.50
2023-05-13T06:00:04.393Z,98647.88
2023-05-13T06:02:50.702Z,98642.19
2023-05-13T06:05:37.134Z,98641.13
2023-05-13T06:08:22.957Z,98644.41
2023-05-13T06:11:10.176Z,98653.50
2023-05-13T06:13:55.613Z,98651.16
2023-05-13T06:16:40.960Z,98634.44
2023-05-13T06:19:26.791Z,98643.97
2023-05-13T06:22:12.146Z,98647.28
2023-05-13T06:24:57.389Z,98645.72
2023-05-13T06:27:42.723Z,98646.34
2023-05-13T06:30:28.250Z,98650.88
2023-05-13T06:33:14.048Z,98646.03
2023-05-13T06:35:59.326Z,98646.59
2023-05-13T06:38:45.372Z,98639.50
2023-05-13T06:41:30.899Z,98637.31
2023-05-13T06:44:23.915Z,98589.06
2023-05-13T06:47:13.132Z,98643.59
2023-05-13T06:49:58.396Z,98628.28
2023-05-13T06:52:43.747Z,98628.72
2023-05-13T06:55:28.938Z,98643.31
2023-05-13T06:58:14.263Z,98647.38
2023-05-13T07:00:59.770Z,98649.84
2023-05-13T07:03:45.941Z,98643.53
2023-05-13T07:06:31.256Z,98654.09
2023-05-13T07:09:16.562Z,98647.16
2023-05-13T07:12:02.156Z,98645.69
2023-05-13T07:14:47.504Z,98641.00
2023-05-13T07:17:32.916Z,98588.44
2023-05-13T07:20:18.538Z,98637.78
2023-05-13T07:23:03.729Z,98635.03
2023-05-13T07:25:49.331Z,98635.28
2023-05-13T07:28:34.642Z,98639.28
2023-05-13T07:31:20.766Z,98637.06
2023-05-13T07:34:06.156Z,98635.91
2023-05-13T07:36:51.522Z,98630.91
2023-05-13T07:39:36.806Z,98621.63
2023-05-13T07:42:21.987Z,98616.75
2023-05-13T07:45:10.684Z,98614.59
2023-05-13T07:47:56.249Z,98619.16
2023-05-13T07:50:41.555Z,98587.56
2023-05-13T07:53:26.975Z,98577.16
2023-05-13T07:56:12.650Z,98619.00
2023-05-13T07:58:58.000Z,98609.09
2023-05-13T08:01:43.180Z,98610.97
2023-05-13T08:04:28.646Z,98552.75
2023-05-13T08:07:13.937Z,98611.19
2023-05-13T08:09:58.998Z,98617.50
2023-05-13T08:12:44.455Z,98619.72
2023-05-13T08:15:29.995Z,98615.28
2023-05-13T08:18:15.345Z,98618.41
2023-05-13T08:21:00.925Z,98619.88
2023-05-13T08:23:46.311Z,98613.66
2023-05-13T08:26:31.550Z,98627.00
2023-05-13T08:29:16.783Z,98615.63
2023-05-13T08:32:02.131Z,98614.38
2023-05-13T08:34:47.902Z,98611.66
2023-05-13T08:37:33.056Z,98615.16
2023-05-13T08:40:18.712Z,98619.41
2023-05-13T08:43:05.947Z,98613.44
2023-05-13T08:45:51.889Z,98613.81
2023-05-13T08:48:41.511Z,98597.06
2023-05-13T08:51:27.083Z,98553.88
2023-05-13T08:54:13.049Z,98609.50
2023-05-13T08:56:58.646Z,98608.63
2023-05-13T08:59:43.796Z,98612.38
2023-05-13T09:02:29.668Z,98615.97
2023-05-13T09:05:18.171Z,98616.28
2023-05-13T09:08:08.242Z,98617.97
2023-05-13T09:10:53.936Z,98611.75
2023-05-13T09:13:39.207Z,98604.47
2023-05-13T09:16:25.126Z,98611.03
2023-05-13T09:19:11.635Z,98606.03
2023-05-13T09:21:57.529Z,98607.34
2023-05-13T09:24:53.878Z,98603.66
2023-05-13T09:27:41.380Z,98601.91
2023-05-13T09:30:28.564Z,98601.91
2023-05-13T09:33:19.148Z,98606.31
2023-05-13T09:36:05.208Z,98613.81
2023-05-13T09:38:52.901Z,98602.81
2023-05-13T09:41:38.036Z,98611.84
2023-05-13T09:44:23.862Z,98547.13
2023-05-13T09:47:16.535Z,98599.53
2023-05-13T09:50:03.193Z,98595.00
2023-05-13T09:52:49.531Z,98604.34
2023-05-13T09:55:34.632Z,98603.38
2023-05-13T09:58:23.245Z,98601.97
2023-05-13T10:01:09.777Z,98610.69
2023-05-13T10:03:57.243Z,98613.63
2023-05-13T10:06:45.339Z,98610.16
2023-05-13T10:09:35.642Z,98612.97
2023-05-13T10:12:24.937Z,98615.22
2023-05-13T10:15:11.328Z,98620.13
2023-05-13T10:17:59.696Z,98602.41
2023-05-13T10:20:46.395Z,98612.09
2023-05-13T10:23:33.139Z,98604.19
2023-05-13T10:26:20.029Z,98603.22
2023-05-13T10:29:06.160Z,98606.91
2023-05-13T10:31:52.218Z,98602.25
2023-05-13T10:34:39.493Z,98600.00
2023-05-13T10:37:27.582Z,98601.72
2023-05-13T10:40:26.245Z,98603.19
2023-05-13T10:43:22.676Z,98602.69
2023-05-13T10:46:12.837Z,98599.19
2023-05-13T10:48:59.663Z,98612.88
2023-05-13T10:51:46.179Z,98603.03
2023-05-13T10:54:40.569Z,98597.44
2023-05-13T10:57:28.762Z,98605.53
2023-05-13T11:00:18.047Z,98609.72
2023-05-13T11:03:29.488Z,98597.03
2023-05-13T11:06:18.810Z,98597.81
2023-05-13T11:09:07.840Z,98591.31
2023-05-13T11:11:54.422Z,98595.44
2023-05-13T11:14:42.786Z,98599.78
2023-05-13T11:17:30.987Z,98594.81
2023-05-13T11:20:18.285Z,98600.41
2023-05-13T11:23:03.792Z,98609.81
2023-05-13T11:26:14.278Z,98608.28
2023-05-13T11:29:04.547Z,98588.88
2023-05-13T11:31:51.159Z,98579.44
2023-05-13T11:34:36.730Z,98587.72
2023-05-13T11:37:23.198Z,98597.53
2023-05-13T11:40:10.165Z,98583.81
2023-05-13T11:42:56.243Z,98586.47
2023-05-13T11:45:41.558Z,98585.50
2023-05-13T11:48:26.697Z,98595.50
2023-05-13T11:51:12.309Z,98603.28
2023-05-13T11:54:04.561Z,98582.72
2023-05-13T11:56:50.082Z,98521.41
2023-05-13T11:59:45.281Z,98599.00
2023-05-13T12:02:38.094Z,98598.78
2023-05-13T12:05:24.290Z,98602.25
2023-05-13T12:08:10.733Z,98600.34
2023-05-13T12:10:59.793Z,98541.97
2023-05-13T12:13:45.100Z,98595.47
2023-05-13T12:16:30.494Z,98589.34
2023-05-13T12:19:16.096Z,98585.41
2023-05-13T12:22:05.447Z,98596.00
2023-05-13T12:24:50.782Z,98587.78
2023-05-13T12:27:37.629Z,98593.34
2023-05-13T12:30:23.291Z,98593.44
2023-05-13T12:33:16.634Z,98588.13
2023-05-13T12:36:15.354Z,98593.94
2023-05-13T12:39:03.802Z,98590.38
2023-05-13T12:41:52.055Z,98595.78
2023-05-13T12:44:38.938Z,98583.16
2023-05-13T12:47:24.617Z,98593.34
2023-05-13T12:50:11.020Z,98585.03
2023-05-13T12:52:56.268Z,98595.44
2023-05-13T12:55:41.837Z,98578.09
2023-05-13T12:58:27.257Z,98586.22
2023-05-13T13:01:12.704Z,98577.78
2023-05-13T13:03:58.153Z,98570.38
2023-05-13T13:06:43.865Z,98576.06
2023-05-13T13:09:29.061Z,98573.34
2023-05-13T13:12:14.234Z,98574.00
2023-05-13T13:14:59.731Z,98577.94
2023-05-13T13:17:44.955Z,98584.38
2023-05-13T13:20:30.251Z,98573.91
2023-05-13T13:23:15.575Z,98575.47
2023-05-13T13:26:01.859Z,98577.59
2023-05-13T13:28:47.831Z,98571.75
2023-05-13T13:31:33.715Z,98548.44
2023-05-13T13:34:19.286Z,98561.06
2023-05-13T13:37:04.735Z,98561.06
2023-05-13T13:39:50.162Z,98557.34
2023-05-13T13:42:44.090Z,98554.66
2023-05-13T13:45:30.127Z,98552.31
2023-05-13T13:48:15.225Z,98548.09
2023-05-13T13:51:00.670Z,98542.31
2023-05-13T13:53:45.845Z,98544.03
2023-05-13T13:56:31.400Z,98549.25
2023-05-13T13:59:16.999Z,98553.88
2023-05-13T14:02:02.460Z,98558.03
2023-05-13T14:04:47.854Z,98540.34
2023-05-13T14:07:33.101Z,98550.69
2023-05-13T14:10:18.221Z,98546.72
2023-05-13T14:13:03.582Z,98550.78
2023-05-13T14:15:48.750Z,98546.66
2023-05-13T14:18:34.012Z,98543.41
2023-05-13T14:21:19.422Z,98539.13
2023-05-13T14:24:05.383Z,98535.78
2023-05-13T14:26:50.819Z,98533.81
2023-05-13T14:29:35.962Z,98532.97
2023-05-13T14:32:21.388Z,98530.97
2023-05-13T14:35:07.258Z,98529.44
2023-05-13T14:37:52.351Z,98527.38
2023-05-13T14:40:38.955Z,98539.47
2023-05-13T14:43:24.678Z,98532.66
2023-05-13T14:46:10.094Z,98528.28
2023-05-13T14:48:55.240Z,98534.28
2023-05-13T14:51:40.756Z,98538.25
2023-05-13T14:54:27.362Z,98535.00
2023-05-13T14:57:12.795Z,98515.38
2023-05-13T14:59:59.951Z,98523.50
2023-05-13T15:02:45.228Z,98509.72
2023-05-13T15:05:30.615Z,98514.19
2023-05-13T15:08:16.532Z,98437.47
2023-05-13T15:11:01.661Z,98510.75
2023-05-13T15:13:47.268Z,98519.97
2023-05-13T15:16:32.552Z,98511.75
2023-05-13T15:19:19.061Z,98510.47
2023-05-13T15:22:05.423Z,98520.84
2023-05-13T15:24:50.561Z,98499.94
2023-05-13T15:27:36.122Z,98524.22
2023-05-13T15:30:21.903Z,98533.13
2023-05-13T15:33:07.616Z,98526.00
2023-05-13T15:35:52.887Z,98525.75
2023-05-13T15:38:38.772Z,98482.41
2023-05-13T15:41:24.657Z,98536.56
2023-05-13T15:44:10.279Z,98543.34
2023-05-13T15:46:55.827Z,98554.47
2023-05-13T15:49:40.991Z,98541.91
2023-05-13T15:52:26.993Z,98543.88
2023-05-13T15:55:12.210Z,98538.56
2023-05-13T15:57:57.412Z,98540.19
2023-05-13T16:00:43.319Z,98523.56
2023-05-13T16:03:28.450Z,98544.16
2023-05-13T16:06:13.748Z,98520.09
2023-05-13T16:08:59.751Z,98515.69
2023-05-13T16:11:44.850Z,98504.66
2023-05-13T16:14:30.153Z,98542.53
2023-05-13T16:17:15.370Z,98548.59
2023-05-13T16:20:00.560Z,98537.19
2023-05-13T16:22:45.795Z,98538.94
2023-05-13T16:25:31.413Z,98533.47
2023-05-13T16:28:16.836Z,98535.41
2023-05-13T16:31:02.090Z,98531.22
2023-05-13T16:33:47.705Z,98534.91
2023-05-13T16:36:33.021Z,98547.97
2023-05-13T16:39:18.645Z,98539.13
2023-05-13T16:42:04.401Z,98541.34
2023-05-13T16:44:49.749Z,98536.44
2023-05-13T16:47:35.029Z,98536.28
2023-05-13T16:50:20.335Z,98536.34
2023-05-13T16:53:05.552Z,98537.03
2023-05-13T16:55:50.617Z,98534.28
2023-05-13T16:58:35.809Z,98536.66
2023-05-13T17:01:21.332Z,98542.06
2023-05-13T17:04:06.808Z,98541.00
2023-05-13T17:06:53.343Z,98538.13
2023-05-13T17:09:38.590Z,98539.16
2023-05-13T17:12:23.768Z,98537.97
2023-05-13T17:15:09.843Z,98533.47
2023-05-13T17:17:55.106Z,98540.50
2023-05-13T17:20:40.227Z,98537.69
2023-05-13T17:23:25.693Z,98530.84
2023-05-13T17:26:11.135Z,98537.69
2023-05-13T17:28:56.652Z,98537.84
2023-05-13T17:31:41.870Z,98514.47
2023-05-13T17:34:27.204Z,98543.19
2023-05-13T17:37:12.581Z,98538.28
2023-05-13T17:39:57.834Z,98539.16
2023-05-13T17:42:43.116Z,98538.34
2023-05-13T17:45:29.141Z,98543.75
2023-05-13T17:48:14.939Z,98545.75
2023-05-13T17:51:00.309Z,98534.13
2023-05-13T17:53:45.447Z,98543.41
2023-05-13T17:56:31.158Z,98542.00
2023-05-13T17:59:16.415Z,98536.63
2023-05-13T18:02:01.953Z,98533.66
2023-05-13T18:04:47.020Z,98539.31
2023-05-13T18:07:32.728Z,98528.72
2023-05-13T18:10:18.418Z,98536.03
2023-05-13T18:13:03.855Z,98533.47
2023-05-13T18:15:49.546Z,98541.47
2023-05-13T18:18:34.887Z,98544.13
2023-05-13T18:21:20.422Z,98543.41
2023-05-13T18:24:06.812Z,98552.19
2023-05-13T18:26:51.920Z,98549.53
2023-05-13T18:29:37.179Z,98552.25
2023-05-13T18:32:22.689Z,98552.00
2023-05-13T18:35:08.548Z,98537.16
2023-05-13T18:37:53.730Z,98554.31
2023-05-13T18:40:38.992Z,98557.34
2023-05-13T18:43:24.608Z,98563.94
2023-05-13T18:46:09.990Z,98572.16
2023-05-13T18:48:55.501Z,98573.25
2023-05-13T18:51:40.891Z,98566.63
2023-05-13T18:54:26.240Z,98585.09
2023-05-13T18:57:11.336Z,98580.59
2023-05-13T18:59:56.495Z,98585.63
2023-05-13T19:02:42.312Z,98574.41
2023-05-13T19:05:27.835Z,98575.59
2023-05-13T19:08:12.955Z,98575.00
2023-05-13T19:10:58.454Z,98579.19
2023-05-13T19:13:47.578Z,98576.66
2023-05-13T19:16:33.141Z,98581.19
2023-05-13T19:19:18.761Z,98586.50
2023-05-13T19:22:04.008Z,98577.75
2023-05-13T19:24:49.432Z,98585.53
2023-05-13T19:27:35.924Z,98586.16
2023-05-13T19:30:21.222Z,98586.13
2023-05-13T19:33:07.814Z,98584.31
2023-05-13T19:35:53.312Z,98592.47
2023-05-13T19:38:38.987Z,98592.03
2023-05-13T19:41:24.163Z,98571.66
2023-05-13T19:44:09.555Z,98601.81
2023-05-13T19:46:55.314Z,98605.50
2023-05-13T19:49:40.665Z,98609.34
2023-05-13T19:52:26.533Z,98600.78
2023-05-13T19:55:11.773Z,98611.59
2023-05-13T19:57:57.370Z,98613.25
2023-05-13T20:00:42.930Z,98610.97
2023-05-13T20:03:28.246Z,98609.94
2023-05-13T20:06:13.940Z,98604.22
2023-05-13T20:08:59.040Z,98601.41
2023-05-13T20:11:44.490Z,98590.63
2023-05-13T20:14:47.547Z,98612.69
2023-05-13T20:17:32.829Z,98603.09
2023-05-13T20:20:18.046Z,98608.81
2023-05-13T20:23:03.439Z,98603.66
2023-05-13T20:25:48.671Z,98603.84
2023-05-13T20:28:35.602Z,98608.72
2023-05-13T20:31:21.960Z,98605.44
2023-05-13T20:34:07.188Z,98600.16
2023-05-13T20:36:52.452Z,98600.97
2023-05-13T20:39:39.141Z,98595.66
2023-05-13T20:42:24.544Z,98600.97
2023-05-13T20:45:11.048Z,98585.03
2023-05-13T20:47:56.433Z,98606.03
2023-05-13T20:50:41.683Z,98609.50
2023-05-13T20:53:27.058Z,98605.63
2023-05-13T20:56:12.622Z,98615.44
2023-05-13T20:58:57.781Z,98608.88
2023-05-13T21:01:43.270Z,98592.47
2023-05-13T21:04:29.373Z,98620.56
2023-05-13T21:07:15.143Z,98611.72
2023-05-13T21:10:01.294Z,98622.72
2023-05-13T21:12:46.766Z,98612.59
2023-05-13T21:15:32.581Z,98616.06
2023-05-13T21:18:18.295Z,98614.41
2023-05-13T21:21:03.953Z,98609.34
2023-05-13T21:23:49.755Z,98602.16
2023-05-13T21:26:34.832Z,98600.53
2023-05-13T21:29:20.945Z,98601.31
2023-05-13T21:32:07.576Z,98604.28
2023-05-13T21:34:53.049Z,98601.03
2023-05-13T21:37:39.476Z,98603.44
2023-05-13T21:40:25.009Z,98596.84
2023-05-13T21:43:10.954Z,98604.91
2023-05-13T21:45:57.040Z,98598.72
2023-05-13T21:48:42.678Z,98598.22
2023-05-13T21:51:28.398Z,98601.38
2023-05-13T21:54:14.035Z,98599.31
2023-05-13T21:56:59.890Z,98556.00
2023-05-13T21:59:45.409Z,98591.69
2023-05-13T22:02:31.100Z,98586.03
2023-05-13T22:05:16.933Z,98591.81
2023-05-13T22:08:02.365Z,98589.38
2023-05-13T22:10:47.496Z,98589.56
2023-05-13T22:13:32.769Z,98582.00
2023-05-13T22:16:18.177Z,98588.56
2023-05-13T22:19:04.000Z,98586.91
2023-05-13T22:21:49.266Z,98507.91
2023-05-13T22:24:34.349Z,98585.84
2023-05-13T22:27:19.843Z,98588.50
2023-05-13T22:30:06.207Z,98592.22
2023-05-13T22:32:52.945Z,98589.00
2023-05-13T22:35:38.390Z,98605.75
2023-05-13T22:38:23.558Z,98599.22
2023-05-13T22:41:08.777Z,98606.00
2023-05-13T22:43:53.890Z,98599.94
2023-05-13T22:46:39.389Z,98602.63
2023-05-13T22:49:24.960Z,98611.53
2023-05-13T22:52:10.320Z,98606.09
2023-05-13T22:54:55.671Z,98609.06
2023-05-13T22:57:40.766Z,98607.50
2023-05-13T23:00:26.361Z,98601.84
2023-05-13T23:03:11.994Z,98592.34
2023-05-13T23:05:57.582Z,98588.34
2023-05-13T23:08:42.704Z,98594.81
2023-05-13T23:11:28.119Z,98588.06
2023-05-13T23:14:13.529Z,98581.09
2023-05-13T23:16:58.771Z,98594.09
2023-05-13T23:19:44.401Z,98587.53
2023-05-13T23:22:29.952Z,98590.75
2023-05-13T23:25:15.235Z,98590.03
2023-05-13T23:28:00.764Z,98586.56
2023-05-13T23:30:45.950Z,98580.44
2023-05-13T23:33:31.476Z,98576.97
2023-05-13T23:36:17.246Z,98588.38
2023-05-13T23:39:03.001Z,98580.06
2023-05-13T23:41:48.604Z,98575.25
2023-05-13T23:44:33.951Z,98578.94
2023-05-13T23:47:19.731Z,98575.00
2023-05-13T23:50:06.068Z,98528.19
2023-05-13T23:52:51.466Z,98572.91
2023-05-13T23:55:36.602Z,98569.91
2023-05-13T23:58:22.100Z,98570.56
